createdAt,value
2019-01-24T00:01:12.730Z,-5.66
2019-01-24T00:03:41.532Z,-5.67
2019-01-24T00:06:10.894Z,-5.64
2019-01-24T00:08:40.218Z,-5.62
2019-01-24T00:11:09.614Z,-5.65
2019-01-24T00:13:38.944Z,-5.64
2019-01-24T00:16:08.411Z,-5.62
2019-01-24T00:18:37.640Z,-5.58
2019-01-24T00:21:06.923Z,-5.57
2019-01-24T00:23:36.190Z,-5.60
2019-01-24T00:26:05.521Z,-5.58
2019-01-24T00:28:34.948Z,-5.61
2019-01-24T00:31:04.228Z,-5.61
2019-01-24T00:33:33.560Z,-5.62
2019-01-24T00:36:02.925Z,-5.63
2019-01-24T00:38:32.374Z,-5.64
2019-01-24T00:41:01.642Z,-5.62
2019-01-24T00:43:30.914Z,-5.63
2019-01-24T00:46:00.288Z,-5.65
2019-01-24T00:48:30.552Z,-5.63
2019-01-24T00:50:59.996Z,-5.59
2019-01-24T00:53:29.360Z,-5.57
2019-01-24T00:55:58.642Z,-5.58
2019-01-24T00:58:27.949Z,-5.56
2019-01-24T01:00:57.260Z,-5.58
2019-01-24T01:03:26.561Z,-5.60
2019-01-24T01:05:55.886Z,-5.66
2019-01-24T01:08:25.278Z,-5.72
2019-01-24T01:10:54.602Z,-5.75
2019-01-24T01:13:23.987Z,-5.77
2019-01-24T01:15:53.411Z,-5.76
2019-01-24T01:18:22.689Z,-5.78
2019-01-24T01:20:51.964Z,-5.81
2019-01-24T01:23:21.275Z,-5.79
2019-01-24T01:25:50.554Z,-5.76
2019-01-24T01:28:19.893Z,-5.72
2019-01-24T01:30:49.172Z,-5.73
2019-01-24T01:33:18.478Z,-5.72
2019-01-24T01:35:47.747Z,-5.70
2019-01-24T01:38:17.497Z,-5.67
2019-01-24T01:40:46.383Z,-5.65
2019-01-24T01:43:15.830Z,-5.63
2019-01-24T01:45:45.084Z,-5.63
2019-01-24T01:48:14.406Z,-5.60
2019-01-24T01:50:43.672Z,-5.58
2019-01-24T01:53:13.031Z,-5.55
2019-01-24T01:55:42.278Z,-5.53
2019-01-24T01:58:11.612Z,-5.50
2019-01-24T02:00:40.870Z,-5.46
2019-01-24T02:03:10.214Z,-5.46
2019-01-24T02:05:39.494Z,-5.45
2019-01-24T02:08:11.789Z,-5.46
2019-01-24T02:10:41.170Z,-5.47
2019-01-24T02:13:10.482Z,-5.44
2019-01-24T02:15:39.790Z,-5.42
2019-01-24T02:18:09.077Z,-5.38
2019-01-24T02:20:38.340Z,-5.37
2019-01-24T02:23:07.614Z,-5.35
2019-01-24T02:25:37.082Z,-5.34
2019-01-24T02:28:06.400Z,-5.33
2019-01-24T02:30:38.311Z,-5.30
2019-01-24T02:33:07.686Z,-5.30
2019-01-24T02:35:36.964Z,-5.26
2019-01-24T02:38:06.260Z,-5.27
2019-01-24T02:40:35.518Z,-5.24
2019-01-24T02:43:04.899Z,-5.23
2019-01-24T02:45:34.172Z,-5.22
2019-01-24T02:48:03.464Z,-5.20
2019-01-24T02:50:32.776Z,-5.18
2019-01-24T02:53:02.043Z,-5.17
2019-01-24T02:55:32.448Z,-5.12
2019-01-24T02:58:01.692Z,-5.12
2019-01-24T03:00:31.011Z,-5.11
2019-01-24T03:03:00.394Z,-5.10
2019-01-24T03:05:29.696Z,-5.07
2019-01-24T03:07:58.992Z,-5.05
2019-01-24T03:10:28.281Z,-5.05
2019-01-24T03:12:57.585Z,-5.06
2019-01-24T03:15:26.927Z,-5.03
2019-01-24T03:17:56.294Z,-5.03
2019-01-24T03:20:25.626Z,-5.03
2019-01-24T03:22:54.929Z,-5.00
2019-01-24T03:25:24.136Z,-4.98
2019-01-24T03:27:53.378Z,-4.95
2019-01-24T03:30:22.955Z,-4.94
2019-01-24T03:32:52.329Z,-4.93
2019-01-24T03:35:26.253Z,-4.90
2019-01-24T03:37:55.561Z,-4.90
2019-01-24T03:40:25.015Z,-4.88
2019-01-24T03:42:54.334Z,-4.87
2019-01-24T03:45:23.755Z,-4.88
2019-01-24T03:47:53.142Z,-4.87
2019-01-24T03:50:22.665Z,-4.90
2019-01-24T03:52:52.067Z,-4.89
2019-01-24T03:55:22.342Z,-4.90
2019-01-24T03:57:51.603Z,-4.90
2019-01-24T04:00:23.238Z,-4.89
2019-01-24T04:02:52.512Z,-4.86
2019-01-24T04:05:21.808Z,-4.84
2019-01-24T04:07:51.084Z,-4.82
2019-01-24T04:10:21.338Z,-4.79
2019-01-24T04:12:50.771Z,-4.77
2019-01-24T04:15:24.720Z,-4.74
2019-01-24T04:17:54.021Z,-4.72
2019-01-24T04:20:23.349Z,-4.70
2019-01-24T04:22:52.657Z,-4.67
2019-01-24T04:25:21.924Z,-4.66
2019-01-24T04:27:51.249Z,-4.67
2019-01-24T04:30:22.102Z,-4.66
2019-01-24T04:32:51.424Z,-4.64
2019-01-24T04:35:21.012Z,-4.63
2019-01-24T04:37:50.311Z,-4.61
2019-01-24T04:40:20.121Z,-4.57
2019-01-24T04:42:49.428Z,-4.58
2019-01-24T04:45:18.757Z,-4.56
2019-01-24T04:47:48.146Z,-4.58
2019-01-24T04:50:18.094Z,-4.57
2019-01-24T04:52:47.393Z,-4.55
2019-01-24T04:55:18.500Z,-4.55
2019-01-24T04:57:47.752Z,-4.52
2019-01-24T05:00:27.975Z,-4.50
2019-01-24T05:02:57.238Z,-4.46
2019-01-24T05:05:28.023Z,-4.48
2019-01-24T05:07:55.851Z,-4.47
2019-01-24T05:10:25.222Z,-4.47
2019-01-24T05:12:54.559Z,-4.45
2019-01-24T05:15:23.867Z,-4.45
2019-01-24T05:17:53.149Z,-4.47
2019-01-24T05:20:22.456Z,-4.48
2019-01-24T05:22:51.696Z,-4.49
2019-01-24T05:25:20.952Z,-4.51
2019-01-24T05:27:50.379Z,-4.51
2019-01-24T05:30:27.353Z,-4.51
2019-01-24T05:32:56.669Z,-4.49
2019-01-24T05:35:26.658Z,-4.48
2019-01-24T05:37:55.934Z,-4.46
2019-01-24T05:40:25.258Z,-4.48
2019-01-24T05:42:54.525Z,-4.51
2019-01-24T05:45:24.060Z,-4.51
2019-01-24T05:47:53.387Z,-4.48
2019-01-24T05:50:22.674Z,-4.44
2019-01-24T05:52:52.086Z,-4.42
2019-01-24T05:55:21.386Z,-4.41
2019-01-24T05:57:50.850Z,-4.39
2019-01-24T06:00:38.251Z,-4.38
2019-01-24T06:03:08.344Z,-4.37
2019-01-24T06:05:41.691Z,-4.38
2019-01-24T06:08:06.958Z,-4.38
2019-01-24T06:10:36.249Z,-4.38
2019-01-24T06:13:05.552Z,-4.36
2019-01-24T06:15:34.802Z,-4.35
2019-01-24T06:18:04.127Z,-4.35
2019-01-24T06:20:33.438Z,-4.34
2019-01-24T06:23:02.742Z,-4.33
2019-01-24T06:25:32.430Z,-4.33
2019-01-24T06:28:01.852Z,-4.33
2019-01-24T06:30:31.270Z,-4.32
2019-01-24T06:33:00.554Z,-4.32
2019-01-24T06:35:29.830Z,-4.32
2019-01-24T06:37:59.254Z,-4.32
2019-01-24T06:40:28.534Z,-4.32
2019-01-24T06:42:57.850Z,-4.33
2019-01-24T06:45:27.167Z,-4.34
2019-01-24T06:47:56.446Z,-4.33
2019-01-24T06:50:25.732Z,-4.34
2019-01-24T06:52:55.072Z,-4.34
2019-01-24T06:55:28.797Z,-4.35
2019-01-24T06:57:58.055Z,-4.36
2019-01-24T07:00:27.378Z,-4.36
2019-01-24T07:02:56.653Z,-4.37
2019-01-24T07:05:25.985Z,-4.39
2019-01-24T07:07:55.237Z,-4.41
2019-01-24T07:10:24.780Z,-4.42
2019-01-24T07:12:54.093Z,-4.45
2019-01-24T07:15:23.512Z,-4.47
2019-01-24T07:17:52.784Z,-4.34
2019-01-24T07:20:22.074Z,-4.29
2019-01-24T07:22:51.386Z,-4.26
2019-01-24T07:25:22.733Z,-4.31
2019-01-24T07:27:52.050Z,-4.48
2019-01-24T07:30:21.539Z,-4.50
2019-01-24T07:32:50.817Z,-4.56
2019-01-24T07:35:20.086Z,-4.54
2019-01-24T07:37:49.453Z,-4.52
2019-01-24T07:40:19.052Z,-4.46
2019-01-24T07:42:48.467Z,-4.40
2019-01-24T07:45:20.620Z,-4.31
2019-01-24T07:47:49.933Z,-4.33
2019-01-24T07:50:19.193Z,-4.35
2019-01-24T07:52:48.456Z,-4.37
2019-01-24T07:55:17.818Z,-4.37
2019-01-24T07:57:47.082Z,-4.41
2019-01-24T08:00:21.847Z,-4.47
2019-01-24T08:02:51.272Z,-4.55
2019-01-24T08:05:21.473Z,-4.58
2019-01-24T08:07:50.811Z,-4.57
2019-01-24T08:10:20.800Z,-4.56
2019-01-24T08:12:50.118Z,-4.62
2019-01-24T08:15:20.323Z,-4.64
2019-01-24T08:17:49.748Z,-4.67
2019-01-24T08:20:20.877Z,-4.71
2019-01-24T08:22:50.125Z,-4.71
2019-01-24T08:25:19.424Z,-4.73
2019-01-24T08:27:48.677Z,-4.68
2019-01-24T08:30:23.053Z,-4.68
2019-01-24T08:32:52.423Z,-4.65
2019-01-24T08:35:21.934Z,-4.60
2019-01-24T08:37:51.227Z,-4.64
2019-01-24T08:40:20.611Z,-4.68
2019-01-24T08:42:49.875Z,-4.73
2019-01-24T08:45:19.198Z,-4.67
2019-01-24T08:47:48.492Z,-4.71
2019-01-24T08:50:19.344Z,-4.63
2019-01-24T08:52:48.642Z,-4.59
2019-01-24T08:55:20.648Z,-4.49
2019-01-24T08:57:49.939Z,-4.62
2019-01-24T09:00:19.622Z,-4.54
2019-01-24T09:02:49.060Z,-4.40
2019-01-24T09:05:18.365Z,-4.18
2019-01-24T09:07:47.620Z,-3.92
2019-01-24T09:10:19.799Z,-3.88
2019-01-24T09:12:49.093Z,-3.84
2019-01-24T09:15:18.390Z,-3.90
2019-01-24T09:17:47.685Z,-3.96
2019-01-24T09:20:17.526Z,-3.93
2019-01-24T09:22:46.822Z,-3.89
2019-01-24T09:25:16.068Z,-3.93
2019-01-24T09:27:45.448Z,-4.00
2019-01-24T09:30:20.373Z,-3.82
2019-01-24T09:32:49.710Z,-3.78
2019-01-24T09:35:19.062Z,-3.81
2019-01-24T09:37:48.390Z,-3.97
2019-01-24T09:40:17.848Z,-3.88
2019-01-24T09:42:47.193Z,-3.74
2019-01-24T09:45:18.892Z,-3.56
2019-01-24T09:47:48.283Z,-3.65
2019-01-24T09:50:19.696Z,-3.68
2019-01-24T09:52:49.044Z,-3.50
2019-01-24T09:55:18.360Z,-3.32
2019-01-24T09:57:47.721Z,-3.16
2019-01-24T10:00:22.242Z,-2.87
2019-01-24T10:02:51.546Z,-2.74
2019-01-24T10:05:20.907Z,-2.55
2019-01-24T10:07:50.187Z,-2.46
2019-01-24T10:10:20.939Z,-2.32
2019-01-24T10:12:50.685Z,-2.34
2019-01-24T10:15:20.167Z,-2.29
2019-01-24T10:17:49.446Z,-2.23
2019-01-24T10:20:20.005Z,-2.17
2019-01-24T10:22:49.303Z,-2.15
2019-01-24T10:25:20.901Z,-2.03
2019-01-24T10:27:50.236Z,-1.89
2019-01-24T10:30:20.685Z,-1.83
2019-01-24T10:32:49.992Z,-1.82
2019-01-24T10:35:19.291Z,-1.92
2019-01-24T10:37:48.536Z,-1.83
2019-01-24T10:40:25.480Z,-1.84
2019-01-24T10:42:54.720Z,-1.67
2019-01-24T10:45:24.037Z,-1.45
2019-01-24T10:47:53.355Z,-1.33
2019-01-24T10:50:23.902Z,-1.13
2019-01-24T10:52:53.175Z,-0.80
2019-01-24T10:55:24.243Z,-0.57
2019-01-24T10:57:54.544Z,-0.36
2019-01-24T11:00:26.429Z,-0.23
2019-01-24T11:02:55.711Z,-0.07
2019-01-24T11:05:25.036Z,0.07
2019-01-24T11:07:54.315Z,0.29
2019-01-24T11:10:23.610Z,0.38
2019-01-24T11:12:52.881Z,0.33
2019-01-24T11:15:23.044Z,0.31
2019-01-24T11:17:52.300Z,0.31
2019-01-24T11:20:21.660Z,0.30
2019-01-24T11:22:51.065Z,0.18
2019-01-24T11:25:21.506Z,0.16
2019-01-24T11:27:50.907Z,0.06
2019-01-24T11:30:24.963Z,0.09
2019-01-24T11:32:54.296Z,0.14
2019-01-24T11:35:25.752Z,0.10
2019-01-24T11:37:55.052Z,0.10
2019-01-24T11:40:24.293Z,0.07
2019-01-24T11:42:53.865Z,-0.04
2019-01-24T11:45:28.473Z,-0.12
2019-01-24T11:47:57.996Z,-0.13
2019-01-24T11:50:27.386Z,-0.15
2019-01-24T11:52:56.706Z,-0.16
2019-01-24T11:55:25.977Z,-0.20
2019-01-24T11:57:55.305Z,-0.25
2019-01-24T12:00:27.899Z,-0.30
2019-01-24T12:02:57.286Z,-0.35
2019-01-24T12:05:26.555Z,-0.43
2019-01-24T12:07:55.839Z,-0.52
2019-01-24T12:10:25.776Z,-0.64
2019-01-24T12:12:55.205Z,-0.72
2019-01-24T12:15:24.994Z,-0.81
2019-01-24T12:17:54.298Z,-0.85
2019-01-24T12:20:24.289Z,-0.90
2019-01-24T12:22:53.547Z,-0.91
2019-01-24T12:25:22.948Z,-0.91
2019-01-24T12:27:52.220Z,-0.92
2019-01-24T12:30:32.301Z,-0.93
2019-01-24T12:33:01.989Z,-0.98
2019-01-24T12:35:31.308Z,-1.03
2019-01-24T12:38:00.587Z,-1.07
2019-01-24T12:40:30.022Z,-1.06
2019-01-24T12:42:59.294Z,-1.10
2019-01-24T12:45:30.768Z,-1.10
2019-01-24T12:48:00.132Z,-1.07
2019-01-24T12:50:29.459Z,-1.14
2019-01-24T12:52:58.802Z,-1.15
2019-01-24T12:55:28.291Z,-1.21
2019-01-24T12:57:57.555Z,-1.20
2019-01-24T13:00:35.227Z,-1.23
2019-01-24T13:03:04.687Z,-1.23
2019-01-24T13:05:34.070Z,-1.28
2019-01-24T13:08:03.315Z,-1.33
2019-01-24T13:10:32.675Z,-1.38
2019-01-24T13:13:02.073Z,-1.38
2019-01-24T13:15:32.436Z,-1.33
2019-01-24T13:18:01.799Z,-1.28
2019-01-24T13:20:31.206Z,-1.22
2019-01-24T13:23:00.638Z,-1.15
2019-01-24T13:25:31.878Z,-1.07
2019-01-24T13:28:01.167Z,-1.04
2019-01-24T13:30:31.993Z,-1.01
2019-01-24T13:33:01.400Z,-1.04
2019-01-24T13:35:30.799Z,-1.03
2019-01-24T13:38:00.130Z,-1.04
2019-01-24T13:40:30.741Z,-1.02
2019-01-24T13:43:00.988Z,-0.98
2019-01-24T13:45:32.608Z,-0.95
2019-01-24T13:48:01.910Z,-0.95
2019-01-24T13:50:31.306Z,-0.98
2019-01-24T13:53:00.682Z,-1.02
2019-01-24T13:55:30.030Z,-1.07
2019-01-24T13:57:59.284Z,-1.12
2019-01-24T14:00:31.086Z,-1.14
2019-01-24T14:03:41.748Z,-1.18
2019-01-24T14:06:04.298Z,-1.18
2019-01-24T14:08:33.621Z,-1.24
2019-01-24T14:11:02.978Z,-1.25
2019-01-24T14:13:32.306Z,-1.28
2019-01-24T14:16:01.600Z,-1.30
2019-01-24T14:18:30.936Z,-1.33
2019-01-24T14:21:00.306Z,-1.39
2019-01-24T14:23:29.582Z,-1.44
2019-01-24T14:25:58.920Z,-1.48
2019-01-24T14:28:28.210Z,-1.51
2019-01-24T14:30:57.480Z,-1.52
2019-01-24T14:33:26.794Z,-1.52
2019-01-24T14:35:56.092Z,-1.54
2019-01-24T14:38:25.351Z,-1.53
2019-01-24T14:40:54.679Z,-1.54
2019-01-24T14:43:23.974Z,-1.53
2019-01-24T14:45:53.319Z,-1.53
2019-01-24T14:48:22.560Z,-1.57
2019-01-24T14:50:52.038Z,-1.61
2019-01-24T14:53:21.417Z,-1.64
2019-01-24T14:55:50.783Z,-1.70
2019-01-24T14:58:20.119Z,-1.73
2019-01-24T15:00:56.181Z,-1.77
2019-01-24T15:03:25.516Z,-1.82
2019-01-24T15:05:54.795Z,-1.86
2019-01-24T15:08:24.185Z,-1.91
2019-01-24T15:10:53.921Z,-1.94
2019-01-24T15:13:23.442Z,-1.98
2019-01-24T15:15:52.900Z,-2.01
2019-01-24T15:18:22.334Z,-2.05
2019-01-24T15:20:51.998Z,-2.08
2019-01-24T15:23:21.442Z,-2.10
2019-01-24T15:25:50.896Z,-2.12
2019-01-24T15:28:20.198Z,-2.15
2019-01-24T15:30:49.530Z,-2.16
2019-01-24T15:33:18.950Z,-2.18
2019-01-24T15:35:48.270Z,-2.20
2019-01-24T15:38:17.818Z,-2.19
2019-01-24T15:40:47.129Z,-2.22
2019-01-24T15:43:16.539Z,-2.23
2019-01-24T15:45:45.962Z,-2.24
2019-01-24T15:48:15.270Z,-2.25
2019-01-24T15:50:44.872Z,-2.28
2019-01-24T15:53:14.337Z,-2.28
2019-01-24T15:55:43.870Z,-2.29
2019-01-24T15:58:13.180Z,-2.31
2019-01-24T16:00:42.396Z,-2.30
2019-01-24T16:03:11.700Z,-2.31
2019-01-24T16:05:41.084Z,-2.32
2019-01-24T16:08:11.262Z,-2.34
2019-01-24T16:10:40.744Z,-2.34
2019-01-24T16:13:10.107Z,-2.34
2019-01-24T16:15:39.416Z,-2.33
2019-01-24T16:18:10.555Z,-2.35
2019-01-24T16:20:40.113Z,-2.35
2019-01-24T16:23:09.388Z,-2.35
2019-01-24T16:25:38.986Z,-2.36
2019-01-24T16:28:08.884Z,-2.35
2019-01-24T16:30:38.181Z,-2.33
2019-01-24T16:33:08.405Z,-2.34
2019-01-24T16:35:38.770Z,-2.35
2019-01-24T16:38:09.533Z,-2.35
2019-01-24T16:40:37.382Z,-2.36
2019-01-24T16:43:06.749Z,-2.36
2019-01-24T16:45:36.143Z,-2.36
2019-01-24T16:48:06.160Z,-2.39
2019-01-24T16:50:35.462Z,-2.39
2019-01-24T16:53:04.768Z,-2.40
2019-01-24T16:55:34.096Z,-2.40
2019-01-24T16:58:03.380Z,-2.41
2019-01-24T17:00:35.944Z,-2.41
2019-01-24T17:03:08.396Z,-2.42
2019-01-24T17:05:37.832Z,-2.44
2019-01-24T17:08:07.874Z,-2.43
2019-01-24T17:10:37.668Z,-2.43
2019-01-24T17:13:08.213Z,-2.42
2019-01-24T17:15:38.617Z,-2.42
2019-01-24T17:18:08.250Z,-2.43
2019-01-24T17:20:37.566Z,-2.43
2019-01-24T17:23:07.467Z,-2.43
2019-01-24T17:25:36.942Z,-2.44
2019-01-24T17:28:07.292Z,-2.44
2019-01-24T17:30:36.692Z,-2.46
2019-01-24T17:33:07.378Z,-2.48
2019-01-24T17:35:36.692Z,-2.49
2019-01-24T17:38:06.490Z,-2.48
2019-01-24T17:40:35.889Z,-2.48
2019-01-24T17:43:07.766Z,-2.49
2019-01-24T17:45:37.438Z,-2.49
2019-01-24T17:48:06.890Z,-2.52
2019-01-24T17:50:36.208Z,-2.54
2019-01-24T17:53:05.731Z,-2.55
2019-01-24T17:55:40.271Z,-2.55
2019-01-24T17:58:10.906Z,-2.58
2019-01-24T18:00:43.065Z,-2.57
2019-01-24T18:03:12.466Z,-2.58
2019-01-24T18:05:41.845Z,-2.58
2019-01-24T18:08:11.230Z,-2.57
2019-01-24T18:10:40.548Z,-2.57
2019-01-24T18:13:09.826Z,-2.58
2019-01-24T18:15:39.149Z,-2.57
2019-01-24T18:18:10.597Z,-2.57
2019-01-24T18:20:39.942Z,-2.56
2019-01-24T18:23:09.279Z,-2.57
2019-01-24T18:25:38.552Z,-2.56
2019-01-24T18:28:09.384Z,-2.57
2019-01-24T18:30:38.662Z,-2.56
2019-01-24T18:33:10.923Z,-2.58
2019-01-24T18:35:37.460Z,-2.59
2019-01-24T18:38:07.572Z,-2.59
2019-01-24T18:40:36.970Z,-2.60
2019-01-24T18:43:10.258Z,-2.61
2019-01-24T18:45:45.543Z,-2.61
2019-01-24T18:48:14.829Z,-2.61
2019-01-24T18:50:44.360Z,-2.62
2019-01-24T18:53:13.673Z,-2.59
2019-01-24T18:55:43.119Z,-2.61
2019-01-24T18:58:12.486Z,-2.60
2019-01-24T19:00:45.966Z,-2.61
2019-01-24T19:03:15.595Z,-2.63
2019-01-24T19:05:45.534Z,-2.63
2019-01-24T19:08:15.069Z,-2.65
2019-01-24T19:10:44.413Z,-2.66
2019-01-24T19:13:13.766Z,-2.67
2019-01-24T19:15:44.967Z,-2.67
2019-01-24T19:18:14.722Z,-2.64
2019-01-24T19:20:44.076Z,-2.56
2019-01-24T19:23:13.379Z,-2.48
2019-01-24T19:25:42.773Z,-2.40
2019-01-24T19:28:14.305Z,-2.36
2019-01-24T19:30:43.608Z,-2.32
2019-01-24T19:33:12.990Z,-2.29
2019-01-24T19:35:42.288Z,-2.26
2019-01-24T19:38:11.691Z,-2.25
2019-01-24T19:40:41.081Z,-2.22
2019-01-24T19:43:10.505Z,-2.22
2019-01-24T19:45:39.916Z,-2.21
2019-01-24T19:48:09.240Z,-2.20
2019-01-24T19:50:38.682Z,-2.18
2019-01-24T19:53:08.441Z,-2.17
2019-01-24T19:55:37.873Z,-2.17
2019-01-24T19:58:07.714Z,-2.16
2019-01-24T20:00:37.249Z,-2.16
2019-01-24T20:03:07.102Z,-2.17
2019-01-24T20:05:36.435Z,-2.17
2019-01-24T20:08:05.984Z,-2.14
2019-01-24T20:10:35.341Z,-2.12
2019-01-24T20:13:05.091Z,-2.09
2019-01-24T20:15:34.531Z,-2.07
2019-01-24T20:18:03.914Z,-2.05
2019-01-24T20:20:33.245Z,-2.04
2019-01-24T20:23:02.705Z,-2.05
2019-01-24T20:25:32.299Z,-2.04
2019-01-24T20:28:04.571Z,-2.04
2019-01-24T20:30:34.114Z,-2.06
2019-01-24T20:33:03.456Z,-2.05
2019-01-24T20:35:53.534Z,-2.04
2019-01-24T20:38:23.352Z,-2.04
2019-01-24T20:40:56.025Z,-2.05
2019-01-24T20:43:25.387Z,-2.05
2019-01-24T20:45:54.733Z,-2.08
2019-01-24T20:48:24.057Z,-2.10
2019-01-24T20:50:55.044Z,-2.11
2019-01-24T20:53:22.875Z,-2.13
2019-01-24T20:55:52.380Z,-2.13
2019-01-24T20:58:21.671Z,-2.13
2019-01-24T21:00:51.081Z,-2.12
2019-01-24T21:03:20.411Z,-2.11
2019-01-24T21:05:49.754Z,-2.11
2019-01-24T21:08:19.055Z,-2.14
2019-01-24T21:10:48.390Z,-2.18
2019-01-24T21:13:17.747Z,-2.23
2019-01-24T21:15:47.180Z,-2.28
2019-01-24T21:18:16.477Z,-2.31
2019-01-24T21:20:45.771Z,-2.35
2019-01-24T21:23:15.117Z,-2.37
2019-01-24T21:25:44.514Z,-2.41
2019-01-24T21:28:13.857Z,-2.42
2019-01-24T21:30:43.229Z,-2.46
2019-01-24T21:33:12.537Z,-2.48
2019-01-24T21:35:42.076Z,-2.47
2019-01-24T21:38:11.411Z,-2.48
2019-01-24T21:40:40.711Z,-2.51
2019-01-24T21:43:10.049Z,-2.50
2019-01-24T21:45:39.433Z,-2.52
2019-01-24T21:48:08.873Z,-2.54
2019-01-24T21:50:38.240Z,-2.56
2019-01-24T21:53:07.640Z,-2.56
2019-01-24T21:55:37.033Z,-2.57
2019-01-24T21:58:07.467Z,-2.57
2019-01-24T22:00:36.853Z,-2.59
2019-01-24T22:03:06.189Z,-2.60
2019-01-24T22:05:35.670Z,-2.60
2019-01-24T22:08:05.219Z,-2.60
2019-01-24T22:10:34.550Z,-2.61
2019-01-24T22:13:03.903Z,-2.62
2019-01-24T22:15:33.334Z,-2.63
2019-01-24T22:18:02.756Z,-2.64
2019-01-24T22:20:32.072Z,-2.63
2019-01-24T22:23:01.415Z,-2.65
2019-01-24T22:25:32.739Z,-2.64
2019-01-24T22:28:02.039Z,-2.64
2019-01-24T22:30:45.049Z,-2.64
2019-01-24T22:33:14.365Z,-2.64
2019-01-24T22:35:43.802Z,-2.60
2019-01-24T22:38:13.142Z,-2.52
2019-01-24T22:40:42.512Z,-2.46
2019-01-24T22:43:11.873Z,-2.44
2019-01-24T22:45:41.295Z,-2.44
2019-01-24T22:48:10.688Z,-2.48
2019-01-24T22:50:40.056Z,-2.49
2019-01-24T22:53:09.493Z,-2.50
2019-01-24T22:55:38.861Z,-2.52
2019-01-24T22:58:08.198Z,-2.54
2019-01-24T23:00:56.173Z,-2.56
2019-01-24T23:03:40.627Z,-2.56
2019-01-24T23:06:09.927Z,-2.57
2019-01-24T23:08:39.215Z,-2.58
2019-01-24T23:11:08.602Z,-2.58
2019-01-24T23:13:38.037Z,-2.62
2019-01-24T23:16:07.311Z,-2.62
2019-01-24T23:18:36.645Z,-2.62
2019-01-24T23:21:05.999Z,-2.63
2019-01-24T23:23:35.271Z,-2.63
2019-01-24T23:26:04.917Z,-2.63
2019-01-24T23:28:34.232Z,-2.63
2019-01-24T23:31:03.632Z,-2.64
2019-01-24T23:33:33.064Z,-2.66
2019-01-24T23:36:02.354Z,-2.65
2019-01-24T23:38:31.660Z,-2.65
2019-01-24T23:41:00.987Z,-2.66
2019-01-24T23:43:30.464Z,-2.66
2019-01-24T23:45:59.728Z,-2.66
2019-01-24T23:48:29.055Z,-2.65
2019-01-24T23:50:58.441Z,-2.64
2019-01-24T23:53:27.877Z,-2.64
2019-01-24T23:55:57.249Z,-2.63
2019-01-24T23:58:26.551Z,-2.61
